createdAt,value
2023-05-15T00:01:23.387Z,13.22
2023-05-15T00:03:52.255Z,13.21
2023-05-15T00:06:20.136Z,13.18
2023-05-15T00:08:47.749Z,13.12
2023-05-15T00:11:15.791Z,13.10
2023-05-15T00:13:43.397Z,13.11
2023-05-15T00:16:11.037Z,13.14
2023-05-15T00:18:38.778Z,13.17
2023-05-15T00:21:06.487Z,13.17
2023-05-15T00:23:34.101Z,13.14
2023-05-15T00:26:01.728Z,13.11
2023-05-15T00:28:29.287Z,13.08
2023-05-15T00:30:56.923Z,13.07
2023-05-15T00:33:24.622Z,13.07
2023-05-15T00:35:52.271Z,13.08
2023-05-15T00:38:19.851Z,13.07
2023-05-15T00:40:47.495Z,13.06
2023-05-15T00:43:15.267Z,13.03
2023-05-15T00:45:43.031Z,12.98
2023-05-15T00:48:10.706Z,12.92
2023-05-15T00:50:39.179Z,12.86
2023-05-15T00:53:07.030Z,12.83
2023-05-15T00:55:34.642Z,12.81
2023-05-15T00:58:03.598Z,12.82
2023-05-15T01:00:32.097Z,12.81
2023-05-15T01:02:59.977Z,12.78
2023-05-15T01:05:28.419Z,12.74
2023-05-15T01:08:18.121Z,12.70
2023-05-15T01:10:45.711Z,12.66
2023-05-15T01:13:14.262Z,12.63
2023-05-15T01:15:46.451Z,12.63
2023-05-15T01:18:17.197Z,12.64
2023-05-15T01:21:00.009Z,12.63
2023-05-15T01:23:53.656Z,12.59
2023-05-15T01:26:30.532Z,12.57
2023-05-15T01:29:27.908Z,12.54
2023-05-15T01:31:58.429Z,12.51
2023-05-15T01:34:34.172Z,12.51
2023-05-15T01:37:03.496Z,12.53
2023-05-15T01:39:32.829Z,12.56
2023-05-15T01:42:09.759Z,12.58
2023-05-15T01:44:40.542Z,12.57
2023-05-15T01:47:13.915Z,12.55
2023-05-15T01:49:42.537Z,12.52
2023-05-15T01:52:16.787Z,12.50
2023-05-15T01:54:44.623Z,12.50
2023-05-15T01:57:12.288Z,12.52
2023-05-15T01:59:39.989Z,12.56
2023-05-15T02:02:07.721Z,12.59
2023-05-15T02:04:35.568Z,12.61
2023-05-15T02:07:03.215Z,12.61
2023-05-15T02:09:32.054Z,12.60
2023-05-15T02:12:02.847Z,12.58
2023-05-15T02:14:30.534Z,12.58
2023-05-15T02:16:58.155Z,12.60
2023-05-15T02:19:25.802Z,12.64
2023-05-15T02:21:53.531Z,12.66
2023-05-15T02:24:21.130Z,12.66
2023-05-15T02:27:05.016Z,12.65
2023-05-15T02:29:38.466Z,12.61
2023-05-15T02:32:10.127Z,12.58
2023-05-15T02:34:44.836Z,12.58
2023-05-15T02:37:14.209Z,12.59
2023-05-15T02:39:42.725Z,12.62
2023-05-15T02:42:10.335Z,12.64
2023-05-15T02:44:37.982Z,12.65
2023-05-15T02:47:06.127Z,12.63
2023-05-15T02:49:33.991Z,12.60
2023-05-15T02:52:01.654Z,12.58
2023-05-15T02:54:29.319Z,12.58
2023-05-15T02:56:57.087Z,12.60
2023-05-15T02:59:24.762Z,12.62
2023-05-15T03:01:52.355Z,12.61
2023-05-15T03:04:20.841Z,12.60
2023-05-15T03:06:48.549Z,12.57
2023-05-15T03:09:16.599Z,12.54
2023-05-15T03:11:44.189Z,12.51
2023-05-15T03:14:11.840Z,12.51
2023-05-15T03:16:39.457Z,12.53
2023-05-15T03:19:07.249Z,12.54
2023-05-15T03:21:35.130Z,12.50
2023-05-15T03:24:02.742Z,12.46
2023-05-15T03:26:30.335Z,12.43
2023-05-15T03:28:58.098Z,12.40
2023-05-15T03:31:25.752Z,12.41
2023-05-15T03:33:53.427Z,12.44
2023-05-15T03:36:22.508Z,12.45
2023-05-15T03:38:50.117Z,12.44
2023-05-15T03:41:17.703Z,12.42
2023-05-15T03:43:45.375Z,12.39
2023-05-15T03:46:12.968Z,12.39
2023-05-15T03:48:40.605Z,12.41
2023-05-15T03:51:08.240Z,12.42
2023-05-15T03:53:35.833Z,12.41
2023-05-15T03:56:03.599Z,12.39
2023-05-15T03:58:32.225Z,12.37
2023-05-15T04:00:59.966Z,12.38
2023-05-15T04:03:27.626Z,12.41
2023-05-15T04:05:55.696Z,12.43
2023-05-15T04:08:23.322Z,12.46
2023-05-15T04:10:51.065Z,12.48
2023-05-15T04:13:18.645Z,12.48
2023-05-15T04:15:46.630Z,12.47
2023-05-15T04:18:14.258Z,12.47
2023-05-15T04:20:41.865Z,12.49
2023-05-15T04:23:09.645Z,12.53
2023-05-15T04:25:37.695Z,12.56
2023-05-15T04:28:06.707Z,12.58
2023-05-15T04:30:34.327Z,12.58
2023-05-15T04:33:01.926Z,12.61
2023-05-15T04:35:30.003Z,12.64
2023-05-15T04:37:57.700Z,12.62
2023-05-15T04:40:25.480Z,12.60
2023-05-15T04:42:53.101Z,12.58
2023-05-15T04:45:20.872Z,12.59
2023-05-15T04:47:48.504Z,12.62
2023-05-15T04:50:16.220Z,12.67
2023-05-15T04:52:43.795Z,12.71
2023-05-15T04:55:11.635Z,12.74
2023-05-15T04:57:39.307Z,12.77
2023-05-15T05:00:14.245Z,12.83
2023-05-15T05:02:43.549Z,12.89
2023-05-15T05:05:11.410Z,12.93
2023-05-15T05:07:39.009Z,12.94
2023-05-15T05:10:07.617Z,12.95
2023-05-15T05:12:35.255Z,12.96
2023-05-15T05:15:02.873Z,12.99
2023-05-15T05:17:31.545Z,13.01
2023-05-15T05:19:59.133Z,13.03
2023-05-15T05:22:26.748Z,13.04
2023-05-15T05:24:54.349Z,13.04
2023-05-15T05:27:21.986Z,13.06
2023-05-15T05:29:49.606Z,13.08
2023-05-15T05:32:17.231Z,13.12
2023-05-15T05:34:44.909Z,13.17
2023-05-15T05:37:12.510Z,13.23
2023-05-15T05:39:40.103Z,13.29
2023-05-15T05:42:07.750Z,13.34
2023-05-15T05:44:35.331Z,13.38
2023-05-15T05:47:02.972Z,13.41
2023-05-15T05:49:30.786Z,13.45
2023-05-15T05:52:05.358Z,13.50
2023-05-15T05:54:33.168Z,13.54
2023-05-15T05:57:02.359Z,13.57
2023-05-15T05:59:30.178Z,13.57
2023-05-15T06:01:57.995Z,13.56
2023-05-15T06:04:25.913Z,13.58
2023-05-15T06:06:54.305Z,13.60
2023-05-15T06:09:22.074Z,13.61
2023-05-15T06:11:49.799Z,13.60
2023-05-15T06:14:17.839Z,13.58
2023-05-15T06:16:46.253Z,13.59
2023-05-15T06:19:13.952Z,13.61
2023-05-15T06:21:41.574Z,13.61
2023-05-15T06:24:09.184Z,13.60
2023-05-15T06:26:36.907Z,13.60
2023-05-15T06:29:04.505Z,13.62
2023-05-15T06:31:32.157Z,13.65
2023-05-15T06:33:59.801Z,13.70
2023-05-15T06:36:27.416Z,13.71
2023-05-15T06:38:55.036Z,13.74
2023-05-15T06:41:22.711Z,13.80
2023-05-15T06:43:50.534Z,13.90
2023-05-15T06:46:19.244Z,14.01
2023-05-15T06:48:47.696Z,14.12
2023-05-15T06:51:15.349Z,14.19
2023-05-15T06:53:43.025Z,14.22
2023-05-15T06:56:10.711Z,14.22
2023-05-15T06:58:38.391Z,14.25
2023-05-15T07:01:07.158Z,14.31
2023-05-15T07:03:34.834Z,14.39
2023-05-15T07:06:02.467Z,14.45
2023-05-15T07:08:30.152Z,14.50
2023-05-15T07:10:57.740Z,14.51
2023-05-15T07:13:25.350Z,14.53
2023-05-15T07:15:52.946Z,14.56
2023-05-15T07:18:20.646Z,14.59
2023-05-15T07:20:48.382Z,14.59
2023-05-15T07:23:16.221Z,14.57
2023-05-15T07:25:45.853Z,14.58
2023-05-15T07:28:13.671Z,14.59
2023-05-15T07:30:41.539Z,14.62
2023-05-15T07:33:09.160Z,14.64
2023-05-15T07:35:37.032Z,14.70
2023-05-15T07:38:04.824Z,14.74
2023-05-15T07:40:32.916Z,14.79
2023-05-15T07:43:00.666Z,14.85
2023-05-15T07:45:28.986Z,14.95
2023-05-15T07:47:58.693Z,15.07
2023-05-15T07:50:26.580Z,15.17
2023-05-15T07:52:54.195Z,15.26
2023-05-15T07:55:21.810Z,15.34
2023-05-15T07:57:53.396Z,15.40
2023-05-15T08:00:21.965Z,15.45
2023-05-15T08:02:49.885Z,15.52
2023-05-15T08:05:17.816Z,15.57
2023-05-15T08:07:51.057Z,15.60
2023-05-15T08:10:18.748Z,15.57
2023-05-15T08:12:47.263Z,15.56
2023-05-15T08:15:15.078Z,15.57
2023-05-15T08:17:43.081Z,15.60
2023-05-15T08:20:11.819Z,15.62
2023-05-15T08:22:39.435Z,15.62
2023-05-15T08:25:08.778Z,15.61
2023-05-15T08:27:36.433Z,15.60
2023-05-15T08:30:04.576Z,15.60
2023-05-15T08:32:32.195Z,15.59
2023-05-15T08:35:00.333Z,15.55
2023-05-15T08:37:27.925Z,15.53
2023-05-15T08:39:55.564Z,15.50
2023-05-15T08:42:34.331Z,15.42
2023-05-15T08:45:02.155Z,15.35
2023-05-15T08:47:30.268Z,15.31
2023-05-15T08:50:12.739Z,15.31
2023-05-15T08:52:45.520Z,15.26
2023-05-15T08:55:16.685Z,15.22
2023-05-15T08:57:45.221Z,15.18
2023-05-15T09:00:14.800Z,15.18
2023-05-15T09:02:43.046Z,15.21
2023-05-15T09:05:10.997Z,15.27
2023-05-15T09:07:38.935Z,15.31
2023-05-15T09:10:06.948Z,15.37
2023-05-15T09:12:34.803Z,15.40
2023-05-15T09:15:21.933Z,15.44
2023-05-15T09:17:50.256Z,15.51
2023-05-15T09:20:31.871Z,15.59
2023-05-15T09:23:00.496Z,15.63
2023-05-15T09:25:38.827Z,15.62
2023-05-15T09:28:08.384Z,15.56
2023-05-15T09:30:39.472Z,15.51
2023-05-15T09:33:07.201Z,15.47
2023-05-15T09:35:38.739Z,15.48
2023-05-15T09:38:11.534Z,15.51
2023-05-15T09:40:39.895Z,15.49
2023-05-15T09:43:10.966Z,15.48
2023-05-15T09:45:38.696Z,15.45
2023-05-15T09:48:07.348Z,15.43
2023-05-15T09:50:37.255Z,15.41
2023-05-15T09:53:05.187Z,15.41
2023-05-15T09:55:36.410Z,15.38
2023-05-15T09:58:06.243Z,15.35
2023-05-15T10:00:34.949Z,15.31
2023-05-15T10:03:03.780Z,15.23
2023-05-15T10:05:42.059Z,15.17
2023-05-15T10:08:11.472Z,15.12
2023-05-15T10:10:39.250Z,15.06
2023-05-15T10:13:07.197Z,15.00
2023-05-15T10:15:34.856Z,14.99
2023-05-15T10:18:02.737Z,15.03
2023-05-15T10:20:32.123Z,15.13
2023-05-15T10:22:59.795Z,15.29
2023-05-15T10:25:49.471Z,15.51
2023-05-15T10:28:17.315Z,15.81
2023-05-15T10:30:44.963Z,16.12
2023-05-15T10:33:12.620Z,16.46
2023-05-15T10:35:40.528Z,16.83
2023-05-15T10:38:08.141Z,17.08
2023-05-15T10:40:37.108Z,17.21
2023-05-15T10:43:05.723Z,17.21
2023-05-15T10:45:33.381Z,17.24
2023-05-15T10:48:01.018Z,17.29
2023-05-15T10:50:28.785Z,17.29
2023-05-15T10:52:56.428Z,17.25
2023-05-15T10:55:24.103Z,17.17
2023-05-15T10:57:51.910Z,17.09
2023-05-15T11:00:22.773Z,17.01
2023-05-15T11:02:53.711Z,16.95
2023-05-15T11:05:21.867Z,16.90
2023-05-15T11:08:25.966Z,16.85
2023-05-15T11:10:54.487Z,16.81
2023-05-15T11:13:22.106Z,16.75
2023-05-15T11:15:49.704Z,16.69
2023-05-15T11:18:17.590Z,16.75
2023-05-15T11:20:54.135Z,16.99
2023-05-15T11:23:22.482Z,17.31
2023-05-15T11:25:54.937Z,17.60
2023-05-15T11:28:23.881Z,17.83
2023-05-15T11:30:52.410Z,18.04
2023-05-15T11:33:20.572Z,18.22
2023-05-15T11:35:48.628Z,18.52
2023-05-15T11:38:17.567Z,18.83
2023-05-15T11:40:49.949Z,19.16
2023-05-15T11:43:27.739Z,19.45
2023-05-15T11:45:58.135Z,19.72
2023-05-15T11:48:31.348Z,20.01
2023-05-15T11:51:00.686Z,20.38
2023-05-15T11:53:29.458Z,20.60
2023-05-15T11:55:57.115Z,20.67
2023-05-15T11:58:25.841Z,20.76
2023-05-15T12:00:53.819Z,20.94
2023-05-15T12:03:26.066Z,21.18
2023-05-15T12:08:24.638Z,21.60
2023-05-15T12:10:52.256Z,21.69
2023-05-15T12:13:19.876Z,21.78
2023-05-15T12:15:47.520Z,21.85
2023-05-15T12:18:15.174Z,21.84
2023-05-15T12:20:46.805Z,21.71
2023-05-15T12:23:18.114Z,21.58
2023-05-15T12:25:46.221Z,21.46
2023-05-15T12:28:14.034Z,21.31
2023-05-15T12:30:42.214Z,21.17
2023-05-15T12:33:10.324Z,21.06
2023-05-15T12:35:42.980Z,20.93
2023-05-15T12:38:14.609Z,20.81
2023-05-15T12:40:46.716Z,20.62
2023-05-15T12:43:14.647Z,20.37
2023-05-15T12:45:42.326Z,20.23
2023-05-15T12:48:16.078Z,20.14
2023-05-15T12:50:45.032Z,20.05
2023-05-15T12:53:16.383Z,19.93
2023-05-15T12:55:45.548Z,19.75
2023-05-15T12:58:15.114Z,19.60
2023-05-15T13:00:43.331Z,19.47
2023-05-15T13:03:11.733Z,19.34
2023-05-15T13:05:41.710Z,19.21
2023-05-15T13:08:09.427Z,19.06
2023-05-15T13:10:38.026Z,18.97
2023-05-15T13:13:05.820Z,18.98
2023-05-15T13:15:51.559Z,19.06
2023-05-15T13:18:19.793Z,19.17
2023-05-15T13:20:48.475Z,19.23
2023-05-15T13:23:18.006Z,19.33
2023-05-15T13:25:45.665Z,19.47
2023-05-15T13:28:13.860Z,19.64
2023-05-15T13:30:41.875Z,19.73
2023-05-15T13:33:10.900Z,19.79
2023-05-15T13:35:39.105Z,19.80
2023-05-15T13:38:10.414Z,19.74
2023-05-15T13:40:39.537Z,19.65
2023-05-15T13:43:07.296Z,19.56
2023-05-15T13:45:35.028Z,19.43
2023-05-15T13:48:03.260Z,19.37
2023-05-15T13:50:31.214Z,19.48
2023-05-15T13:52:58.971Z,19.64
2023-05-15T13:55:27.479Z,19.85
2023-05-15T13:57:55.118Z,19.95
2023-05-15T14:00:22.838Z,19.97
2023-05-15T14:02:50.483Z,19.91
2023-05-15T14:05:18.277Z,19.79
2023-05-15T14:07:46.060Z,19.67
2023-05-15T14:10:13.717Z,19.58
2023-05-15T14:12:43.336Z,19.51
2023-05-15T14:15:12.020Z,19.44
2023-05-15T14:17:39.717Z,19.39
2023-05-15T14:20:10.139Z,19.28
2023-05-15T14:22:38.207Z,19.09
2023-05-15T14:25:06.381Z,18.92
2023-05-15T14:27:34.004Z,18.74
2023-05-15T14:30:01.610Z,18.58
2023-05-15T14:32:29.257Z,18.42
2023-05-15T14:34:59.828Z,18.26
2023-05-15T14:37:28.488Z,18.15
2023-05-15T14:39:56.126Z,18.02
2023-05-15T14:42:23.791Z,17.94
2023-05-15T14:44:51.450Z,17.87
2023-05-15T14:47:19.059Z,17.88
2023-05-15T14:49:46.636Z,17.91
2023-05-15T14:52:14.218Z,17.89
2023-05-15T14:54:41.835Z,17.83
2023-05-15T14:57:09.433Z,17.73
2023-05-15T14:59:37.071Z,17.61
2023-05-15T15:02:05.036Z,17.50
2023-05-15T15:04:34.526Z,17.47
2023-05-15T15:07:03.341Z,17.45
2023-05-15T15:09:31.283Z,17.44
2023-05-15T15:11:58.876Z,17.45
2023-05-15T15:14:26.585Z,17.44
2023-05-15T15:16:54.188Z,17.43
2023-05-15T15:19:22.171Z,17.39
2023-05-15T15:21:49.860Z,17.35
2023-05-15T15:24:17.481Z,17.35
2023-05-15T15:26:45.055Z,17.36
2023-05-15T15:29:12.648Z,17.38
2023-05-15T15:31:40.290Z,17.38
2023-05-15T15:34:09.089Z,17.37
2023-05-15T15:36:41.517Z,17.33
2023-05-15T15:39:11.581Z,17.26
2023-05-15T15:41:39.537Z,17.20
2023-05-15T15:44:07.176Z,17.14
2023-05-15T15:46:34.916Z,17.08
2023-05-15T15:49:04.500Z,17.08
2023-05-15T15:51:33.812Z,17.14
2023-05-15T15:54:01.434Z,17.09
2023-05-15T15:56:29.025Z,17.05
2023-05-15T15:58:56.642Z,16.99
2023-05-15T16:01:24.280Z,16.89
2023-05-15T16:03:51.971Z,16.82
2023-05-15T16:06:19.653Z,16.80
2023-05-15T16:08:47.246Z,16.76
2023-05-15T16:11:16.389Z,16.67
2023-05-15T16:13:44.591Z,16.56
2023-05-15T16:16:12.341Z,16.46
2023-05-15T16:18:40.051Z,16.51
2023-05-15T16:21:07.964Z,16.64
2023-05-15T16:23:40.483Z,16.84
2023-05-15T16:26:08.429Z,16.98
2023-05-15T16:28:36.020Z,17.23
2023-05-15T16:31:04.182Z,17.66
2023-05-15T16:33:32.542Z,18.13
2023-05-15T16:36:00.313Z,18.53
2023-05-15T16:38:28.062Z,18.79
2023-05-15T16:40:55.687Z,19.01
2023-05-15T16:43:23.331Z,18.97
2023-05-15T16:45:50.932Z,18.72
2023-05-15T16:48:18.602Z,18.41
2023-05-15T16:50:46.218Z,18.11
2023-05-15T16:53:15.130Z,17.88
2023-05-15T16:55:43.013Z,17.63
2023-05-15T16:58:10.619Z,17.37
2023-05-15T17:00:38.479Z,17.13
2023-05-15T17:03:06.602Z,16.93
2023-05-15T17:05:34.294Z,16.78
2023-05-15T17:08:01.923Z,16.65
2023-05-15T17:10:29.535Z,16.52
2023-05-15T17:12:57.182Z,16.38
2023-05-15T17:15:26.010Z,16.28
2023-05-15T17:17:53.881Z,16.22
2023-05-15T17:20:21.550Z,16.15
2023-05-15T17:22:49.169Z,16.00
2023-05-15T17:25:16.861Z,15.79
2023-05-15T17:27:44.514Z,15.42
2023-05-15T17:30:12.499Z,15.06
2023-05-15T17:32:40.576Z,14.76
2023-05-15T17:35:08.806Z,14.49
2023-05-15T17:37:36.494Z,14.22
2023-05-15T17:40:04.598Z,13.97
2023-05-15T17:42:32.289Z,13.79
2023-05-15T17:45:00.164Z,13.69
2023-05-15T17:47:27.853Z,13.64
2023-05-15T17:49:55.706Z,13.61
2023-05-15T17:52:23.315Z,13.59
2023-05-15T17:54:50.946Z,13.56
2023-05-15T17:57:18.589Z,13.54
2023-05-15T17:59:46.575Z,13.54
2023-05-15T18:02:14.254Z,13.57
2023-05-15T18:04:41.899Z,13.60
2023-05-15T18:07:09.486Z,13.63
2023-05-15T18:09:38.918Z,13.63
2023-05-15T18:12:06.999Z,13.64
2023-05-15T18:14:34.682Z,13.64
2023-05-15T18:17:02.358Z,13.64
2023-05-15T18:19:29.960Z,13.65
2023-05-15T18:22:00.173Z,13.66
2023-05-15T18:24:27.871Z,13.65
2023-05-15T18:26:55.585Z,13.62
2023-05-15T18:29:23.477Z,13.57
2023-05-15T18:31:51.400Z,13.54
2023-05-15T18:34:19.200Z,13.53
2023-05-15T18:36:49.705Z,13.51
2023-05-15T18:39:18.185Z,13.48
2023-05-15T18:41:45.827Z,13.45
2023-05-15T18:44:13.454Z,13.40
2023-05-15T18:46:41.245Z,13.36
2023-05-15T18:49:08.940Z,13.34
2023-05-15T18:51:36.578Z,13.35
2023-05-15T18:54:04.159Z,13.36
2023-05-15T18:56:31.766Z,13.35
2023-05-15T18:58:59.354Z,13.30
2023-05-15T19:01:27.094Z,13.24
2023-05-15T19:03:54.775Z,13.19
2023-05-15T19:06:22.429Z,13.17
2023-05-15T19:08:50.104Z,13.17
2023-05-15T19:11:17.838Z,13.14
2023-05-15T19:13:45.517Z,13.10
2023-05-15T19:16:13.228Z,13.05
2023-05-15T19:18:41.139Z,13.01
2023-05-15T19:21:08.823Z,13.00
2023-05-15T19:23:36.452Z,12.98
2023-05-15T19:26:04.089Z,12.94
2023-05-15T19:28:31.726Z,12.90
2023-05-15T19:30:59.362Z,12.84
2023-05-15T19:33:26.999Z,12.79
2023-05-15T19:35:54.603Z,12.78
2023-05-15T19:38:22.558Z,12.77
2023-05-15T19:40:50.169Z,12.74
2023-05-15T19:43:17.987Z,12.70
2023-05-15T19:45:45.593Z,12.67
2023-05-15T19:48:13.614Z,12.61
2023-05-15T19:50:41.225Z,12.59
2023-05-15T19:53:08.880Z,12.60
2023-05-15T19:55:36.558Z,12.62
2023-05-15T19:58:04.219Z,12.64
2023-05-15T20:00:32.517Z,12.63
2023-05-15T20:03:01.039Z,12.58
2023-05-15T20:05:29.057Z,12.54
2023-05-15T20:07:56.639Z,12.54
2023-05-15T20:10:24.612Z,12.55
2023-05-15T20:12:52.513Z,12.57
2023-05-15T20:15:20.151Z,12.57
2023-05-15T20:17:47.825Z,12.57
2023-05-15T20:20:15.470Z,12.55
2023-05-15T20:22:44.529Z,12.53
2023-05-15T20:25:12.516Z,12.55
2023-05-15T20:27:40.158Z,12.57
2023-05-15T20:30:08.421Z,12.59
2023-05-15T20:32:36.400Z,12.57
2023-05-15T20:35:04.472Z,12.56
2023-05-15T20:37:33.316Z,12.53
2023-05-15T20:40:00.919Z,12.53
2023-05-15T20:42:28.559Z,12.55
2023-05-15T20:44:56.316Z,12.59
2023-05-15T20:47:24.105Z,12.59
2023-05-15T20:49:51.847Z,12.59
2023-05-15T20:52:20.842Z,12.57
2023-05-15T20:54:48.838Z,12.55
2023-05-15T20:57:16.463Z,12.53
2023-05-15T20:59:44.151Z,12.51
2023-05-15T21:02:11.985Z,12.52
2023-05-15T21:04:39.837Z,12.55
2023-05-15T21:07:07.479Z,12.55
2023-05-15T21:09:35.412Z,12.53
2023-05-15T21:12:04.236Z,12.51
2023-05-15T21:14:32.091Z,12.48
2023-05-15T21:16:59.805Z,12.47
2023-05-15T21:19:27.554Z,12.48
2023-05-15T21:21:55.325Z,12.48
2023-05-15T21:24:22.962Z,12.45
2023-05-15T21:26:50.644Z,12.42
2023-05-15T21:29:18.236Z,12.37
2023-05-15T21:31:45.969Z,12.33
2023-05-15T21:34:13.578Z,12.31
2023-05-15T21:36:41.295Z,12.30
2023-05-15T21:39:09.553Z,12.27
2023-05-15T21:41:37.173Z,12.22
2023-05-15T21:44:04.882Z,12.18
2023-05-15T21:46:32.590Z,12.15
2023-05-15T21:49:01.074Z,12.14
2023-05-15T21:51:28.762Z,12.13
2023-05-15T21:53:56.360Z,12.11
2023-05-15T21:56:24.264Z,12.06
2023-05-15T21:58:53.031Z,12.04
2023-05-15T22:01:20.899Z,12.02
2023-05-15T22:03:48.679Z,12.02
2023-05-15T22:06:16.656Z,12.02
2023-05-15T22:08:44.278Z,11.99
2023-05-15T22:11:12.086Z,11.95
2023-05-15T22:13:39.706Z,11.92
2023-05-15T22:16:07.330Z,11.92
2023-05-15T22:18:35.392Z,11.88
2023-05-15T22:21:03.520Z,11.83
2023-05-15T22:23:34.213Z,11.78
2023-05-15T22:26:02.237Z,11.75
2023-05-15T22:28:29.839Z,11.75
2023-05-15T22:30:57.451Z,11.73
2023-05-15T22:33:25.101Z,11.70
2023-05-15T22:35:53.667Z,11.65
2023-05-15T22:38:21.491Z,11.62
2023-05-15T22:40:52.942Z,11.59
2023-05-15T22:43:22.108Z,11.58
2023-05-15T22:45:49.751Z,11.56
2023-05-15T22:48:17.584Z,11.54
2023-05-15T22:50:45.259Z,11.51
2023-05-15T22:53:12.846Z,11.47
2023-05-15T22:55:40.823Z,11.46
2023-05-15T22:58:08.613Z,11.47
2023-05-15T23:00:36.384Z,11.46
2023-05-15T23:03:04.056Z,11.43
2023-05-15T23:05:31.800Z,11.38
2023-05-15T23:07:59.374Z,11.33
2023-05-15T23:10:27.237Z,11.30
2023-05-15T23:12:55.111Z,11.29
2023-05-15T23:15:22.846Z,11.27
2023-05-15T23:17:50.503Z,11.24
2023-05-15T23:20:18.725Z,11.19
2023-05-15T23:22:46.322Z,11.17
2023-05-15T23:25:13.949Z,11.18
2023-05-15T23:27:41.682Z,11.19
2023-05-15T23:30:10.030Z,11.17
2023-05-15T23:32:37.862Z,11.14
2023-05-15T23:35:06.171Z,11.11
2023-05-15T23:37:33.781Z,11.10
2023-05-15T23:40:01.445Z,11.10
2023-05-15T23:42:29.887Z,11.09
2023-05-15T23:44:57.500Z,11.06
2023-05-15T23:47:25.262Z,11.01
2023-05-15T23:49:52.939Z,10.98
2023-05-15T23:52:20.592Z,10.99
2023-05-15T23:54:48.196Z,11.00
2023-05-15T23:57:15.792Z,11.00
2023-05-15T23:59:43.391Z,10.99
